Time;durP1;ratioP1;P1;durP2;ratioP2;P2;SDS_P1;SDS_P2;PMS_P1;PMS_P2;Temp;Humidity;BMP_temperature;BMP_pressure;BME280_temperature;BME280_humidity;BME280_pressure;Samples;Min_cycle;Max_cycle;Signal;HPM_P1;HPM_P2
2022/08/17 00:00:25;;;;;;;31.27;27.80;;;18.40;99.90;;;;;;5104451;28;20048;-62
2022/08/17 00:02:58;;;;;;;60.70;32.10;;;18.40;99.90;;;;;;5104400;28;20040;-62
2022/08/17 00:05:24;;;;;;;59.83;49.10;;;18.40;99.90;;;;;;5104418;28;20048;-62
2022/08/17 00:07:51;;;;;;;38.65;32.85;;;;;;;;;;5103691;28;20093;-62
2022/08/17 00:10:16;;;;;;;50.60;44.08;;;18.40;99.90;;;;;;5103464;28;20517;-62
2022/08/17 00:12:44;;;;;;;64.45;54.17;;;18.40;99.90;;;;;;5097930;28;20115;-62
2022/08/17 00:15:12;;;;;;;43.67;37.92;;;18.40;99.90;;;;;;5104172;28;20048;-62
2022/08/17 00:17:40;;;;;;;45.97;34.35;;;18.40;99.90;;;;;;5105868;28;20040;-62
2022/08/17 00:20:08;;;;;;;32.35;27.85;;;18.30;99.90;;;;;;5106091;28;20047;-62
2022/08/17 00:22:34;;;;;;;34.05;27.95;;;18.30;99.90;;;;;;5107172;28;20051;-62
2022/08/17 00:24:59;;;;;;;34.47;27.60;;;18.40;99.90;;;;;;5105925;28;20048;-62
2022/08/17 00:27:25;;;;;;;36.28;30.42;;;18.50;99.90;;;;;;5107220;28;20036;-62
2022/08/17 00:29:51;;;;;;;36.63;31.00;;;18.60;99.90;;;;;;5108010;28;20047;-62
2022/08/17 00:32:16;;;;;;;28.38;24.52;;;18.70;99.90;;;;;;5106943;28;20093;-62
2022/08/17 00:34:42;;;;;;;37.17;28.98;;;18.70;99.90;;;;;;5107231;28;20093;-62
2022/08/17 00:37:08;;;;;;;47.88;34.38;;;18.70;99.90;;;;;;5108555;28;20036;-62
2022/08/17 00:39:33;;;;;;;49.25;37.75;;;18.60;99.90;;;;;;5105850;28;20040;-62
2022/08/17 00:41:59;;;;;;;45.65;36.00;;;18.40;99.90;;;;;;5107266;28;20044;-62
2022/08/17 00:44:25;;;;;;;42.67;31.92;;;18.40;99.90;;;;;;5105691;28;20050;-62
2022/08/17 00:46:51;;;;;;;39.17;30.92;;;18.50;99.90;;;;;;5106669;28;20054;-62
2022/08/17 00:49:18;;;;;;;33.97;29.73;;;18.50;99.90;;;;;;5107007;28;20051;-62
2022/08/17 00:51:53;;;;;;;34.20;29.45;;;18.40;99.90;;;;;;5107808;28;20074;-63
2022/08/17 00:54:42;;;;;;;34.08;28.33;;;18.40;99.90;;;;;;5106938;28;20534;-63
2022/08/17 00:57:12;;;;;;;34.50;29.08;;;18.60;99.90;;;;;;5106229;28;20044;-63
2022/08/17 00:59:42;;;;;;;42.13;35.53;;;18.60;99.90;;;;;;5107308;28;20036;-63
2022/08/17 01:02:11;;;;;;;41.53;35.60;;;18.60;99.90;;;;;;5100312;28;20050;-63
2022/08/17 01:04:37;;;;;;;41.53;34.93;;;18.70;99.90;;;;;;5107134;28;20035;-63
2022/08/17 01:07:05;;;;;;;39.80;34.38;;;18.80;99.90;;;;;;5107914;28;20057;-63
2022/08/17 01:09:31;;;;;;;33.63;30.05;;;18.60;99.90;;;;;;5106959;28;20044;-63
2022/08/17 01:11:57;;;;;;;39.58;34.45;;;18.50;99.90;;;;;;5106281;28;20122;-62
2022/08/17 01:14:25;;;;;;;36.35;32.40;;;18.50;99.90;;;;;;5106496;28;20047;-63
2022/08/17 01:16:53;;;;;;;38.05;33.92;;;18.40;99.90;;;;;;5107608;28;20056;-63
2022/08/17 01:19:23;;;;;;;58.58;43.10;;;18.30;99.90;;;;;;5106199;28;20036;-63
2022/08/17 01:22:06;;;;;;;64.85;46.65;;;18.10;99.90;;;;;;5107392;28;20055;-63
2022/08/17 01:24:33;;;;;;;63.67;50.47;;;17.80;99.90;;;;;;5106172;28;20052;-63
2022/08/17 01:27:00;;;;;;;57.13;43.28;;;17.70;99.90;;;;;;5103081;28;20048;-63
2022/08/17 01:29:29;;;;;;;53.08;40.33;;;17.80;99.90;;;;;;5104620;28;20052;-63
2022/08/17 01:31:58;;;;;;;47.22;37.80;;;17.90;99.90;;;;;;5105682;28;20040;-63
2022/08/17 01:34:24;;;;;;;38.40;30.33;;;17.90;99.90;;;;;;5103683;28;20055;-63
2022/08/17 01:36:50;;;;;;;43.40;36.25;;;17.90;99.90;;;;;;5105555;28;20108;-62
2022/08/17 01:39:33;;;;;;;36.95;30.55;;;18.00;99.90;;;;;;5106879;28;20082;-62
2022/08/17 01:42:22;;;;;;;35.95;30.98;;;18.20;99.90;;;;;;5099031;28;20074;-62
2022/08/17 01:44:51;;;;;;;39.80;33.53;;;18.20;99.90;;;;;;5105577;28;20040;-62
2022/08/17 01:47:17;;;;;;;49.88;38.30;;;18.30;99.90;;;;;;5107042;28;20052;-62
2022/08/17 01:49:43;;;;;;;40.35;34.63;;;18.30;99.90;;;;;;5106715;28;20051;-62
2022/08/17 01:52:10;;;;;;;83.50;40.90;;;18.60;99.90;;;;;;5105295;28;20040;-62
2022/08/17 01:54:39;;;;;;;255.80;48.20;;;18.10;99.90;;;;;;5105270;28;20052;-63
2022/08/17 01:57:05;;;;;;;70.95;42.53;;;17.90;99.90;;;;;;5107034;28;20040;-63
2022/08/17 01:59:32;;;;;;;89.53;56.67;;;17.70;99.90;;;;;;5105643;28;20040;-63
2022/08/17 02:01:59;;;;;;;111.40;56.45;;;;;;;;;;5104051;28;20063;-62
2022/08/17 02:04:25;;;;;;;134.38;66.80;;;17.50;99.90;;;;;;5105331;28;20055;-63
2022/08/17 02:06:50;;;;;;;71.80;54.72;;;17.50;99.90;;;;;;5105560;28;20043;-62
2022/08/17 02:09:16;;;;;;;47.08;40.15;;;17.70;99.90;;;;;;5105036;28;20194;-62
2022/08/17 02:11:43;;;;;;;35.78;30.90;;;17.70;99.90;;;;;;5104264;28;20032;-62
2022/08/17 02:14:10;;;;;;;37.10;33.20;;;17.80;99.90;;;;;;5104851;28;20054;-62
2022/08/17 02:16:39;;;;;;;56.03;43.25;;;18.60;99.90;;;;;;5103741;28;20048;-62
2022/08/17 02:19:14;;;;;;;49.27;40.97;;;17.90;99.90;;;;;;5105067;28;20408;-62
2022/08/17 02:21:42;;;;;;;43.58;34.50;;;17.90;99.90;;;;;;5103616;28;20044;-63
2022/08/17 02:24:11;;;;;;;33.40;29.88;;;18.20;99.90;;;;;;5105449;28;20087;-63
2022/08/17 02:26:37;;;;;;;42.15;33.53;;;18.00;99.90;;;;;;5103716;28;20059;-62
2022/08/17 02:29:03;;;;;;;54.85;40.58;;;18.00;99.90;;;;;;5104658;28;20044;-62
2022/08/17 02:31:29;;;;;;;108.20;58.47;;;17.90;99.90;;;;;;5104921;28;20082;-62
2022/08/17 02:33:56;;;;;;;108.32;58.35;;;17.90;99.90;;;;;;5100470;28;20090;-63
2022/08/17 02:36:22;;;;;;;60.88;49.05;;;17.80;99.90;;;;;;5104991;28;20079;-63
2022/08/17 02:38:48;;;;;;;49.53;40.80;;;17.70;99.90;;;;;;5103306;28;20100;-63
2022/08/17 02:41:14;;;;;;;42.47;37.13;;;20.00;99.90;;;;;;5104305;28;20036;-63
2022/08/17 02:43:40;;;;;;;39.92;33.70;;;17.50;99.90;;;;;;5103770;28;20131;-63
2022/08/17 02:46:05;;;;;;;50.08;40.63;;;17.70;99.90;;;;;;5103368;28;20040;-63
2022/08/17 02:48:31;;;;;;;61.72;47.70;;;17.70;99.90;;;;;;5105262;28;20043;-63
2022/08/17 02:50:57;;;;;;;62.08;48.72;;;17.60;99.90;;;;;;5103171;28;20075;-63
2022/08/17 02:53:23;;;;;;;134.68;55.42;;;17.50;99.90;;;;;;5104205;28;20094;-62
2022/08/17 02:55:48;;;;;;;62.67;51.67;;;17.40;99.90;;;;;;5104323;28;20036;-62
2022/08/17 02:58:17;;;;;;;52.88;47.10;;;17.30;99.90;;;;;;5099641;28;20067;-63
2022/08/17 03:00:47;;;;;;;31.95;28.77;;;17.20;99.90;;;;;;5104238;28;20095;-63
2022/08/17 03:03:17;;;;;;;38.20;34.10;;;17.30;99.90;;;;;;5104366;28;20089;-62
2022/08/17 03:05:47;;;;;;;40.45;34.95;;;17.30;99.90;;;;;;5104551;28;20055;-62
2022/08/17 03:08:13;;;;;;;37.38;31.65;;;;;;;;;;5104086;28;20415;-62
2022/08/17 03:10:38;;;;;;;36.45;32.20;;;17.20;99.90;;;;;;5102620;28;20040;-62
2022/08/17 03:13:04;;;;;;;38.38;33.40;;;17.30;99.90;;;;;;5103587;28;20415;-62
2022/08/17 03:15:33;;;;;;;38.90;32.67;;;17.30;99.90;;;;;;5102771;28;20048;-63
2022/08/17 03:17:59;;;;;;;38.92;32.30;;;17.30;99.90;;;;;;5103689;28;20079;-63
2022/08/17 03:20:27;;;;;;;42.20;33.17;;;17.40;99.90;;;;;;5104122;28;20380;-63
2022/08/17 03:22:55;;;;;;;39.63;32.63;;;17.50;99.90;;;;;;5102637;28;20065;-62
2022/08/17 03:25:25;;;;;;;39.85;32.88;;;17.50;99.90;;;;;;5098199;28;20115;-63
2022/08/17 03:27:51;;;;;;;35.88;31.88;;;17.70;99.90;;;;;;5103924;28;20040;-62
2022/08/17 03:30:16;;;;;;;36.28;31.95;;;17.80;99.90;;;;;;5104342;28;20064;-62
2022/08/17 03:32:46;;;;;;;38.13;28.77;;;17.90;99.90;;;;;;5103825;28;20036;-62
2022/08/17 03:35:15;;;;;;;33.65;29.77;;;17.90;99.90;;;;;;5101107;28;20075;-63
2022/08/17 03:37:41;;;;;;;35.65;31.08;;;17.80;99.90;;;;;;5101986;28;20043;-62
2022/08/17 03:40:09;;;;;;;35.60;31.73;;;17.70;99.90;;;;;;5103525;28;20087;-62
2022/08/17 03:42:37;;;;;;;38.45;32.95;;;17.70;99.90;;;;;;5104076;28;20091;-62
2022/08/17 03:45:06;;;;;;;42.40;34.25;;;17.80;99.90;;;;;;5104264;28;20040;-62
2022/08/17 03:58:45;;;;;;;39.38;31.95;;;18.00;99.90;;;;;;5108586;28;20099;-63
2022/08/17 04:01:12;;;;;;;42.25;35.25;;;18.20;99.90;;;;;;5107480;28;20124;-63
2022/08/17 04:03:38;;;;;;;42.40;35.03;;;18.10;99.90;;;;;;5107232;28;20048;-62
2022/08/17 04:06:04;;;;;;;44.03;35.92;;;18.00;99.90;;;;;;5107372;28;20032;-63
2022/08/17 04:08:31;;;;;;;41.92;35.00;;;18.10;99.90;;;;;;5107532;28;20070;-62
2022/08/17 04:10:59;;;;;;;49.80;37.92;;;18.10;99.90;;;;;;5108289;28;20036;-62
2022/08/17 04:13:25;;;;;;;39.00;33.83;;;18.10;99.90;;;;;;5107169;28;20040;-62
2022/08/17 04:15:51;;;;;;;42.47;35.20;;;18.20;99.90;;;;;;5107288;28;20093;-63
2022/08/17 04:18:17;;;;;;;44.28;37.00;;;18.20;99.90;;;;;;5106583;28;20027;-62
2022/08/17 04:20:44;;;;;;;45.45;35.72;;;18.20;99.90;;;;;;5108084;28;20066;-62
2022/08/17 04:23:14;;;;;;;41.83;35.28;;;18.20;99.90;;;;;;5108930;28;20076;-62
2022/08/17 04:25:48;;;;;;;39.25;34.30;;;18.20;99.90;;;;;;5108002;28;20074;-63
2022/08/17 04:28:15;;;;;;;39.58;35.20;;;18.40;99.90;;;;;;5106151;28;20051;-63
2022/08/17 04:30:43;;;;;;;39.15;33.50;;;18.40;99.90;;;;;;5107808;28;20040;-62
2022/08/17 04:33:12;;;;;;;40.25;34.80;;;18.50;99.90;;;;;;5106390;28;20069;-62
2022/08/17 04:35:42;;;;;;;40.23;34.23;;;18.50;99.90;;;;;;5105475;28;20067;-63
2022/08/17 04:38:10;;;;;;;42.72;34.83;;;18.60;99.90;;;;;;5107324;28;20107;-63
2022/08/17 04:43:23;;;;;;;40.47;34.72;;;18.20;99.90;;;;;;5104605;28;20124;-62
2022/08/17 04:45:51;;;;;;;39.53;35.33;;;18.70;99.90;;;;;;5106576;28;20541;-62
2022/08/17 04:48:17;;;;;;;38.80;34.50;;;18.70;99.90;;;;;;5106752;28;20514;-63
2022/08/17 04:50:45;;;;;;;42.08;36.28;;;18.70;99.90;;;;;;5106858;28;20044;-62
2022/08/17 04:53:13;;;;;;;43.03;35.40;;;18.70;99.90;;;;;;5106547;28;20089;-63
2022/08/17 04:55:39;;;;;;;41.45;34.67;;;18.70;99.90;;;;;;5104717;28;20044;-63
2022/08/17 04:58:05;;;;;;;38.83;34.60;;;18.70;99.90;;;;;;5106546;28;20106;-62
2022/08/17 05:00:31;;;;;;;42.45;34.72;;;18.30;99.90;;;;;;5107185;28;20565;-62
2022/08/17 05:02:57;;;;;;;43.78;36.38;;;;;;;;;;5105948;28;20076;-62
2022/08/17 05:05:26;;;;;;;38.10;31.88;;;18.80;99.90;;;;;;5105803;28;20111;-63
2022/08/17 05:07:57;;;;;;;35.92;30.80;;;18.80;99.90;;;;;;5105454;28;20311;-62
2022/08/17 05:10:25;;;;;;;38.65;32.53;;;18.30;99.90;;;;;;5103199;28;20040;-62
2022/08/17 05:13:03;;;;;;;41.33;34.20;;;18.80;99.90;;;;;;5103296;28;20107;-63
2022/08/17 05:15:31;;;;;;;37.88;33.80;;;19.10;99.90;;;;;;5106162;28;20056;-62
2022/08/17 05:17:57;;;;;;;44.00;33.25;;;;;;;;;;5103085;28;20036;-62
2022/08/17 05:20:24;;;;;;;41.88;35.60;;;18.70;99.90;;;;;;5103866;28;20056;-63
2022/08/17 05:22:53;;;;;;;37.90;31.35;;;18.70;99.90;;;;;;5105692;28;20495;-62
2022/08/17 05:25:27;;;;;;;39.33;32.28;;;18.70;99.90;;;;;;5102473;28;20036;-62
2022/08/17 05:27:53;;;;;;;39.85;33.08;;;18.80;99.90;;;;;;5104532;28;20067;-62
2022/08/17 05:30:20;;;;;;;41.13;34.22;;;18.50;99.90;;;;;;5106134;28;20036;-62
2022/08/17 05:32:58;;;;;;;42.47;34.97;;;18.90;99.90;;;;;;5105450;28;20043;-62
2022/08/17 05:35:25;;;;;;;43.60;36.65;;;18.80;99.90;;;;;;5106309;28;20155;-63
2022/08/17 05:37:52;;;;;;;43.85;36.95;;;19.00;99.90;;;;;;5100725;28;20055;-63
2022/08/17 05:40:19;;;;;;;43.28;37.65;;;19.00;99.90;;;;;;5106495;28;20063;-63
2022/08/17 05:42:46;;;;;;;48.85;38.50;;;19.00;99.90;;;;;;5104035;28;20518;-63
2022/08/17 05:45:12;;;;;;;41.20;33.78;;;19.00;99.90;;;;;;5103647;28;20051;-63
2022/08/17 05:47:38;;;;;;;39.28;35.05;;;18.90;99.90;;;;;;5106637;28;20050;-63
2022/08/17 05:50:08;;;;;;;46.95;39.10;;;19.00;99.90;;;;;;5106943;28;20082;-63
2022/08/17 05:52:44;;;;;;;40.05;34.85;;;19.00;99.90;;;;;;5105358;28;20044;-63
2022/08/17 05:55:31;;;;;;;46.75;36.83;;;19.00;99.90;;;;;;5105631;28;20048;-64
2022/08/17 05:58:21;;;;;;;45.63;36.58;;;19.10;99.90;;;;;;5104137;28;20071;-70
2022/08/17 06:00:54;;;;;;;46.78;37.67;;;19.10;99.90;;;;;;5105179;28;20056;-66
2022/08/17 06:03:32;;;;;;;51.08;41.28;;;19.10;99.90;;;;;;5105896;28;20040;-66
2022/08/17 06:06:22;;;;;;;50.05;39.50;;;19.20;99.90;;;;;;5104225;28;20040;-65
2022/08/17 06:09:26;;;;;;;56.30;44.05;;;18.60;99.90;;;;;;5103015;28;20069;-67
2022/08/17 06:12:00;;;;;;;54.63;41.63;;;19.10;99.90;;;;;;5103202;28;20044;-65
2022/08/17 06:14:47;;;;;;;56.10;41.97;;;19.20;99.90;;;;;;5103095;28;20039;-65
2022/08/17 06:17:17;;;;;;;50.38;38.42;;;18.70;99.90;;;;;;5101776;28;20048;-63
2022/08/17 06:19:53;;;;;;;61.28;46.25;;;19.30;99.90;;;;;;5097958;28;20044;-66
2022/08/17 06:22:22;;;;;;;55.30;41.70;;;19.30;99.90;;;;;;5102462;28;20041;-67
2022/08/17 06:24:55;;;;;;;69.73;47.13;;;19.40;99.90;;;;;;5104599;28;20044;-65
2022/08/17 06:27:41;;;;;;;56.45;44.60;;;19.30;99.90;;;;;;5104382;28;20051;-67
2022/08/17 06:30:15;;;;;;;56.50;46.13;;;19.50;99.90;;;;;;5103581;28;20052;-65
2022/08/17 06:32:44;;;;;;;61.15;45.90;;;19.40;99.90;;;;;;5100459;28;20064;-65
2022/08/17 06:35:14;;;;;;;63.13;46.60;;;19.50;99.90;;;;;;5104326;28;20056;-66
2022/08/17 06:37:52;;;;;;;63.33;47.28;;;;;;;;;;5104285;28;20296;-64
2022/08/17 06:40:18;;;;;;;61.15;46.40;;;;;;;;;;5101411;28;20071;-64
2022/08/17 06:42:56;;;;;;;69.93;51.58;;;19.70;99.90;;;;;;5102219;28;20044;-64
2022/08/17 06:45:29;;;;;;;65.82;47.03;;;19.70;99.90;;;;;;5103155;28;20101;-64
2022/08/17 06:48:14;;;;;;;70.90;50.20;;;19.20;99.90;;;;;;5104830;28;20051;-64
2022/08/17 06:50:59;;;;;;;63.30;46.35;;;19.50;99.90;;;;;;5100517;28;20043;-64
2022/08/17 06:53:37;;;;;;;60.10;45.67;;;20.00;99.90;;;;;;5101793;28;20032;-64
2022/08/17 06:56:07;;;;;;;62.10;46.65;;;19.80;99.90;;;;;;5102918;28;20040;-64
2022/08/17 06:58:34;;;;;;;61.22;45.88;;;19.80;99.90;;;;;;5104707;28;20051;-64
2022/08/17 07:01:10;;;;;;;57.65;44.90;;;19.80;99.90;;;;;;5104884;28;20044;-64
2022/08/17 07:03:39;;;;;;;62.45;45.67;;;19.90;99.90;;;;;;5102174;28;20048;-64
2022/08/17 07:06:20;;;;;;;60.25;45.13;;;19.90;99.90;;;;;;5102433;28;20046;-64
2022/08/17 07:09:02;;;;;;;53.88;42.58;;;20.00;99.90;;;;;;5105176;28;20044;-64
2022/08/17 07:11:42;;;;;;;58.22;45.13;;;20.00;99.90;;;;;;5103893;28;20050;-64
2022/08/17 07:14:35;;;;;;;61.20;46.92;;;20.00;99.90;;;;;;5104773;28;20463;-64
2022/08/17 07:17:06;;;;;;;60.20;44.75;;;20.60;99.90;;;;;;5101012;28;20048;-64
2022/08/17 07:19:33;;;;;;;57.72;45.90;;;20.10;99.90;;;;;;5102174;28;20055;-64
2022/08/17 07:22:18;;;;;;;59.53;44.50;;;20.50;99.90;;;;;;5105108;28;20109;-65
2022/08/17 07:24:56;;;;;;;56.10;42.90;;;20.20;99.90;;;;;;5101010;28;20048;-64
2022/08/17 07:27:29;;;;;;;58.42;44.65;;;20.20;99.90;;;;;;5103446;28;20050;-64
2022/08/17 07:30:29;;;;;;;54.58;42.78;;;20.20;99.90;;;;;;5103646;28;20401;-64
2022/08/17 07:32:58;;;;;;;56.63;44.85;;;20.30;99.90;;;;;;5061011;28;20057;-64
2022/08/17 07:35:29;;;;;;;57.45;43.88;;;20.30;99.90;;;;;;5060999;28;20532;-64
2022/08/17 07:38:13;;;;;;;54.08;43.05;;;20.40;99.90;;;;;;5054085;28;20541;-64
2022/08/17 07:40:48;;;;;;;52.97;42.58;;;20.50;99.90;;;;;;5060797;28;20065;-64
2022/08/17 07:43:30;;;;;;;51.60;42.05;;;20.60;99.90;;;;;;5060591;28;20049;-64
2022/08/17 07:48:54;;;;;;;49.08;37.80;;;20.60;99.90;;;;;;5058339;28;20516;-64
2022/08/17 07:51:25;;;;;;;51.38;42.95;;;20.70;99.90;;;;;;5061064;28;20051;-64
2022/08/17 07:53:54;;;;;;;54.10;42.22;;;20.70;99.90;;;;;;5061130;28;20049;-64
2022/08/17 07:56:59;;;;;;;49.35;39.85;;;20.80;99.90;;;;;;5060597;28;20045;-64
2022/08/17 07:59:28;;;;;;;45.45;37.55;;;21.00;99.90;;;;;;5041005;28;20076;-65
2022/08/17 08:01:57;;;;;;;;;;;21.10;99.90;;;;;;5061953;28;20049;-65
2022/08/17 08:04:44;;;;;;;43.33;34.58;;;21.10;99.90;;;;;;5061186;28;20429;-64
2022/08/17 08:07:22;;;;;;;40.25;33.30;;;21.30;99.90;;;;;;5060184;28;20044;-64
2022/08/17 08:10:14;;;;;;;38.72;34.08;;;21.40;99.90;;;;;;5091691;28;20454;-64
2022/08/17 08:12:45;;;;;;;39.95;34.83;;;21.60;99.90;;;;;;5104340;28;20058;-64
2022/08/17 08:15:32;;;;;;;34.97;30.80;;;21.60;99.90;;;;;;5103547;28;20047;-64
2022/08/17 08:18:03;;;;;;;34.05;30.38;;;21.70;99.90;;;;;;5099929;28;20044;-64
2022/08/17 08:20:48;;;;;;;33.15;29.33;;;21.80;99.90;;;;;;5103903;28;20051;-64
2022/08/17 08:24:03;;;;;;;32.15;28.77;;;21.90;99.90;;;;;;5103904;28;20047;-64
2022/08/17 08:27:09;;;;;;;33.13;29.42;;;22.10;99.90;;;;;;5094342;28;20108;-64
2022/08/17 08:29:51;;;;;;;34.75;30.15;;;22.30;99.90;;;;;;5023943;28;20053;-64
2022/08/17 08:32:48;;;;;;;33.70;27.35;;;22.40;99.90;;;;;;5039601;28;20045;-64
2022/08/17 08:35:30;;;;;;;28.40;25.40;;;22.40;99.90;;;;;;4981445;28;20065;-64
2022/08/17 08:37:57;;;;;;;26.15;23.50;;;22.40;99.90;;;;;;4984834;28;20074;-64
2022/08/17 08:40:37;;;;;;;28.60;25.50;;;22.10;99.90;;;;;;4985764;28;20058;-64
2022/08/17 08:43:11;;;;;;;28.13;24.20;;;22.30;99.90;;;;;;4985254;28;20043;-64
2022/08/17 08:46:03;;;;;;;26.77;23.73;;;22.30;99.90;;;;;;4985628;28;20119;-64
2022/08/17 08:49:00;;;;;;;27.75;24.90;;;22.30;99.90;;;;;;4969310;28;20054;-65
2022/08/17 08:51:54;;;;;;;31.50;25.92;;;22.30;99.90;;;;;;4943282;28;20058;-64
2022/08/17 08:54:43;;;;;;;28.98;25.65;;;21.00;99.90;;;;;;4985178;28;20051;-64
2022/08/17 08:57:20;;;;;;;26.40;23.38;;;23.00;99.90;;;;;;4983374;28;20158;-64
2022/08/17 09:00:01;;;;;;;28.85;23.10;;;22.60;99.90;;;;;;4985170;28;20226;-64
2022/08/17 09:02:58;;;;;;;27.98;24.70;;;21.80;99.90;;;;;;4985645;28;20051;-65
2022/08/17 09:05:29;;;;;;;34.22;25.63;;;21.30;99.90;;;;;;4996483;28;20046;-64
2022/08/17 09:08:16;;;;;;;28.55;25.42;;;22.40;99.90;;;;;;5007695;28;20115;-64
2022/08/17 09:11:04;;;;;;;28.35;24.13;;;21.60;99.90;;;;;;5032402;28;20046;-64
2022/08/17 09:13:45;;;;;;;28.10;24.17;;;23.10;99.90;;;;;;5106444;28;20051;-64
2022/08/17 09:16:19;;;;;;;26.30;23.50;;;22.30;99.90;;;;;;5105219;28;20060;-64
2022/08/17 09:18:52;;;;;;;28.35;25.10;;;22.60;99.90;;;;;;5105567;28;20043;-64
2022/08/17 09:21:39;;;;;;;24.10;21.05;;;22.20;99.90;;;;;;5107607;28;20442;-65
2022/08/17 09:24:16;;;;;;;25.27;22.52;;;22.30;99.90;;;;;;5106066;28;20050;-64
2022/08/17 09:26:59;;;;;;;24.80;22.27;;;22.20;99.90;;;;;;5107695;28;20063;-64
2022/08/17 09:29:28;;;;;;;25.25;22.65;;;22.30;99.90;;;;;;5105615;28;20048;-64
2022/08/17 09:32:02;;;;;;;27.73;24.80;;;22.40;99.90;;;;;;5104558;28;20036;-64
2022/08/17 09:34:42;;;;;;;25.63;22.98;;;22.50;99.90;;;;;;5104719;28;20126;-65
2022/08/17 09:37:13;;;;;;;27.88;25.08;;;22.50;99.90;;;;;;5107379;28;20076;-64
2022/08/17 09:40:10;;;;;;;32.97;28.58;;;22.60;99.90;;;;;;5105624;28;20064;-65
2022/08/17 09:43:06;;;;;;;28.88;25.77;;;22.70;99.90;;;;;;5104889;28;20078;-64
2022/08/17 09:45:43;;;;;;;30.52;26.65;;;22.80;99.90;;;;;;5105705;28;20050;-64
2022/08/17 09:48:16;;;;;;;30.17;25.80;;;22.80;99.90;;;;;;5105257;28;20052;-65
2022/08/17 09:50:54;;;;;;;25.80;23.08;;;22.90;99.90;;;;;;5104456;28;20044;-65
2022/08/17 09:53:21;;;;;;;34.35;25.65;;;22.80;99.90;;;;;;5105742;28;20419;-64
2022/08/17 09:56:17;;;;;;;28.70;24.35;;;22.90;99.90;;;;;;5106196;28;20431;-64
2022/08/17 09:59:08;;;;;;;28.45;24.98;;;23.10;99.90;;;;;;5105326;28;20407;-64
2022/08/17 10:02:14;;;;;;;32.65;24.55;;;23.20;99.90;;;;;;5103181;28;20052;-64
2022/08/17 10:04:52;;;;;;;30.92;25.00;;;23.40;99.90;;;;;;5085341;28;20103;-64
2022/08/17 10:07:32;;;;;;;30.75;23.95;;;23.50;99.90;;;;;;5104459;28;20515;-64
2022/08/17 10:10:11;;;;;;;33.15;25.27;;;23.50;99.90;;;;;;5105428;28;20043;-64
2022/08/17 10:12:44;;;;;;;41.92;26.58;;;23.60;99.90;;;;;;5106905;28;20043;-64
2022/08/17 10:15:22;;;;;;;40.17;25.80;;;23.60;99.90;;;;;;5104289;28;20048;-64
2022/08/17 10:18:30;;;;;;;37.13;27.40;;;23.60;99.90;;;;;;5096928;28;20055;-64
2022/08/17 10:27:33;;;;;;;65.22;30.17;;;23.70;99.90;;;;;;5106088;28;20093;-65
2022/08/17 10:30:03;;;;;;;37.85;28.55;;;23.70;99.90;;;;;;5105653;28;20739;-64
2022/08/17 10:32:36;;;;;;;39.45;30.10;;;23.60;99.90;;;;;;5106064;28;20044;-64
2022/08/17 10:35:24;;;;;;;35.55;28.10;;;23.60;99.90;;;;;;5105726;28;20064;-65
2022/08/17 10:38:16;;;;;;;38.92;31.35;;;23.60;99.90;;;;;;5105846;28;20082;-64
2022/08/17 10:41:09;;;;;;;36.35;30.45;;;23.70;99.90;;;;;;5104415;28;20044;-64
2022/08/17 10:44:04;;;;;;;57.00;31.08;;;23.70;99.90;;;;;;5104087;28;20197;-64
2022/08/17 10:47:02;;;;;;;43.15;30.77;;;23.70;99.90;;;;;;5105479;28;20074;-64
2022/08/17 10:49:43;;;;;;;36.90;31.52;;;23.70;99.90;;;;;;5102617;28;20048;-64
2022/08/17 10:52:27;;;;;;;39.53;30.60;;;23.70;99.90;;;;;;5104721;28;20032;-64
2022/08/17 10:54:55;;;;;;;36.95;30.70;;;23.80;99.90;;;;;;5104219;28;20066;-64
2022/08/17 10:57:32;;;;;;;37.92;30.02;;;23.90;99.90;;;;;;5104298;28;20126;-64
2022/08/17 11:00:08;;;;;;;32.20;28.27;;;24.00;99.90;;;;;;5103484;28;20082;-64
2022/08/17 11:02:53;;;;;;;40.47;33.67;;;24.00;99.90;;;;;;5102782;28;20058;-64
2022/08/17 11:05:40;;;;;;;43.67;32.00;;;24.10;99.90;;;;;;5104113;28;20040;-64
2022/08/17 11:08:47;;;;;;;39.97;32.88;;;24.20;99.90;;;;;;5101680;28;20036;-64
2022/08/17 11:11:46;;;;;;;42.58;32.97;;;24.30;99.90;;;;;;5104868;28;20107;-64
2022/08/17 11:14:49;;;;;;;40.92;34.65;;;24.40;99.90;;;;;;5105513;28;20044;-64
2022/08/17 11:17:36;;;;;;;37.58;31.65;;;24.50;99.90;;;;;;5100724;28;20515;-64
2022/08/17 11:20:27;;;;;;;40.08;34.50;;;24.50;99.90;;;;;;5100806;28;20104;-64
2022/08/17 11:23:04;;;;;;;46.25;36.03;;;24.60;99.90;;;;;;5102576;28;20063;-64
2022/08/17 11:25:32;;;;;;;42.75;33.72;;;24.70;99.90;;;;;;5103369;28;20123;-64
2022/08/17 11:28:21;;;;;;;37.63;31.25;;;24.80;99.90;;;;;;5098823;28;20044;-64
2022/08/17 11:31:29;;;;;;;40.75;34.15;;;24.90;99.90;;;;;;5103894;28;20040;-64
2022/08/17 11:34:25;;;;;;;102.90;39.33;;;25.00;99.90;;;;;;5103547;28;20486;-64
2022/08/17 11:37:22;;;;;;;44.30;35.65;;;25.00;99.90;;;;;;5103699;28;20086;-64
2022/08/17 11:40:13;;;;;;;47.75;38.15;;;25.00;99.90;;;;;;5104686;28;20047;-64
2022/08/17 11:42:57;;;;;;;44.22;36.75;;;25.00;99.90;;;;;;5104332;28;20040;-64
2022/08/17 11:45:46;;;;;;;49.65;38.55;;;25.00;99.90;;;;;;5098236;28;20127;-64
2022/08/17 11:51:33;;;;;;;46.60;37.80;;;25.10;99.90;;;;;;5102511;28;20051;-64
2022/08/17 11:54:04;;;;;;;51.47;40.00;;;25.10;99.90;;;;;;5103827;28;20040;-64
2022/08/17 11:56:40;;;;;;;50.70;41.75;;;25.10;99.90;;;;;;5103771;28;20059;-64
2022/08/17 11:59:24;;;;;;;47.75;39.92;;;25.00;99.90;;;;;;5102212;28;20048;-64
2022/08/17 12:01:54;;;;;;;46.78;37.92;;;25.00;99.90;;;;;;5103423;28;20055;-64
2022/08/17 12:04:20;;;;;;;45.22;37.85;;;25.00;99.90;;;;;;5103409;28;20059;-64
2022/08/17 12:06:58;;;;;;;52.28;41.55;;;24.90;99.90;;;;;;5103516;28;20059;-64
2022/08/17 12:09:29;;;;;;;45.70;38.20;;;24.90;99.90;;;;;;5098903;28;20057;-64
2022/08/17 12:12:03;;;;;;;48.92;40.47;;;24.80;99.90;;;;;;5075126;28;20511;-65
2022/08/17 12:14:33;;;;;;;50.13;41.00;;;24.80;99.90;;;;;;5080402;28;20048;-66
2022/08/17 12:17:04;;;;;;;53.17;41.63;;;24.70;99.90;;;;;;5066367;28;20086;-64
2022/08/17 12:19:32;;;;;;;50.70;43.33;;;24.50;99.90;;;;;;5095979;28;20040;-64
2022/08/17 12:22:25;;;;;;;51.17;41.95;;;24.50;99.90;;;;;;5072984;28;20048;-65
2022/08/17 12:25:12;;;;;;;53.55;43.17;;;24.50;99.90;;;;;;5101358;28;20113;-65
2022/08/17 12:27:45;;;;;;;54.17;42.30;;;24.60;99.90;;;;;;5088703;28;20056;-66
2022/08/17 12:30:14;;;;;;;51.88;42.47;;;24.70;99.90;;;;;;5087961;28;20493;-64
2022/08/17 12:32:44;;;;;;;52.78;41.88;;;24.80;99.90;;;;;;5102557;28;20043;-65
2022/08/17 12:35:34;;;;;;;47.65;39.83;;;24.90;99.90;;;;;;5091803;28;20057;-65
2022/08/17 12:38:01;;;;;;;46.38;41.28;;;25.00;99.90;;;;;;5087841;28;20040;-65
2022/08/17 12:40:32;;;;;;;51.00;41.90;;;25.10;99.90;;;;;;5084826;28;20040;-65
2022/08/17 12:43:06;;;;;;;48.25;40.67;;;25.10;99.90;;;;;;5084366;28;20054;-65
2022/08/17 12:45:34;;;;;;;49.90;41.47;;;25.20;99.90;;;;;;5090161;28;20826;-66
2022/08/17 12:48:06;;;;;;;50.17;40.83;;;25.20;99.90;;;;;;5097308;28;20036;-65
2022/08/17 12:50:38;;;;;;;47.10;41.65;;;25.20;99.90;;;;;;5088754;28;20048;-65
2022/08/17 12:53:14;;;;;;;62.63;44.60;;;25.20;99.90;;;;;;5101993;28;20032;-65
2022/08/17 12:55:41;;;;;;;53.65;44.60;;;25.20;99.90;;;;;;5092153;28;20094;-65
2022/08/17 12:58:13;;;;;;;50.15;43.13;;;25.10;99.90;;;;;;5101088;28;20047;-65
2022/08/17 13:00:55;;;;;;;50.42;41.72;;;25.00;99.90;;;;;;5090628;28;20074;-65
2022/08/17 13:03:25;;;;;;;51.15;42.80;;;24.90;99.90;;;;;;5100465;28;20078;-65
2022/08/17 13:05:56;;;;;;;50.55;41.33;;;24.90;99.90;;;;;;5089795;28;20052;-65
2022/08/17 13:08:25;;;;;;;54.75;44.28;;;24.80;99.90;;;;;;5090038;28;20036;-65
2022/08/17 13:11:08;;;;;;;46.42;41.10;;;24.70;99.90;;;;;;5087489;28;20411;-65
2022/08/17 13:13:37;;;;;;;50.22;43.65;;;24.70;99.90;;;;;;5059069;28;20056;-65
2022/08/17 13:16:13;;;;;;;47.67;42.22;;;24.70;99.90;;;;;;5090273;28;20110;-65
2022/08/17 13:18:41;;;;;;;47.30;40.08;;;24.70;99.90;;;;;;5105122;28;20059;-65
2022/08/17 13:21:17;;;;;;;47.95;39.45;;;24.70;99.90;;;;;;5088197;28;20078;-65
2022/08/17 13:24:09;;;;;;;45.10;39.40;;;24.80;99.90;;;;;;5092508;28;20062;-66
2022/08/17 13:26:42;;;;;;;48.28;41.03;;;24.80;99.90;;;;;;5087938;28;20062;-65
2022/08/17 13:29:47;;;;;;;43.45;37.67;;;24.80;99.90;;;;;;5092972;28;20127;-66
2022/08/17 13:32:21;;;;;;;41.95;37.30;;;24.80;99.90;;;;;;5103996;28;20051;-66